Time;durP1;ratioP1;P1;durP2;ratioP2;P2;SDS_P1;SDS_P2;PMS_P1;PMS_P2;Temp;Humidity;BMP_temperature;BMP_pressure;BME280_temperature;BME280_humidity;BME280_pressure;Samples;Min_cycle;Max_cycle;Signal;HPM_P1;HPM_P2
2022/10/25 00:01:25;;;;;;;3.83;2.73;;;14.20;99.90;;;;;;5033999;28;20648;-78
2022/10/25 00:03:53;;;;;;;4.53;2.20;;;14.20;99.90;;;;;;5037068;28;20216;-78
2022/10/25 00:06:20;;;;;;;6.03;2.30;;;14.20;99.90;;;;;;5060962;28;20270;-78
2022/10/25 00:08:46;;;;;;;4.67;2.40;;;14.20;99.90;;;;;;5040743;28;20202;-78
2022/10/25 00:11:28;;;;;;;6.43;2.40;;;14.10;99.90;;;;;;5051470;28;20721;-78
2022/10/25 00:13:58;;;;;;;2.60;1.90;;;14.20;99.90;;;;;;5035668;28;20226;-78
2022/10/25 00:16:34;;;;;;;4.00;2.07;;;14.20;99.90;;;;;;5032452;28;20636;-78
2022/10/25 00:19:01;;;;;;;4.60;2.37;;;14.20;99.90;;;;;;5048604;28;20189;-78
2022/10/25 00:21:27;;;;;;;7.47;2.47;;;14.10;99.90;;;;;;5041483;28;20182;-78
2022/10/25 00:23:54;;;;;;;10.23;2.53;;;14.20;99.90;;;;;;5061719;28;20198;-78
2022/10/25 00:26:20;;;;;;;3.37;2.43;;;14.20;99.90;;;;;;5058846;28;20178;-77
2022/10/25 00:28:50;;;;;;;6.30;2.47;;;14.20;99.90;;;;;;5066869;28;20186;-78
2022/10/25 00:31:17;;;;;;;3.90;2.60;;;14.20;99.90;;;;;;5072207;28;20223;-77
2022/10/25 00:33:44;;;;;;;5.30;2.50;;;14.20;99.90;;;;;;5070451;28;20225;-78
2022/10/25 00:36:16;;;;;;;2.90;2.07;;;14.20;99.90;;;;;;5036206;28;20553;-78
2022/10/25 00:38:44;;;;;;;3.97;2.50;;;14.20;99.90;;;;;;5041771;28;20212;-78
2022/10/25 00:41:22;;;;;;;2.93;2.40;;;14.20;99.90;;;;;;5034683;28;20201;-78
2022/10/25 00:43:53;;;;;;;3.03;2.40;;;14.20;99.90;;;;;;5031335;28;20202;-78
2022/10/25 00:46:19;;;;;;;5.13;2.80;;;14.20;99.90;;;;;;5048425;28;20241;-78
2022/10/25 00:49:14;;;;;;;3.23;2.33;;;14.20;99.90;;;;;;5050970;28;20500;-78
2022/10/25 00:51:46;;;;;;;4.63;2.43;;;14.20;99.90;;;;;;5040637;28;20211;-78
2022/10/25 00:54:19;;;;;;;6.17;2.33;;;14.10;99.90;;;;;;5038512;28;20672;-78
2022/10/25 00:56:49;;;;;;;4.70;2.37;;;14.20;99.90;;;;;;5052996;28;20218;-78
2022/10/25 00:59:23;;;;;;;7.10;2.33;;;14.20;99.90;;;;;;5065292;28;20179;-78
2022/10/25 01:01:54;;;;;;;5.50;2.40;;;14.10;99.90;;;;;;5050571;28;20189;-78
2022/10/25 01:04:25;;;;;;;6.07;2.70;;;14.10;99.90;;;;;;5039490;28;20281;-77
2022/10/25 01:06:53;;;;;;;4.00;2.13;;;14.10;99.90;;;;;;5055381;28;20731;-77
2022/10/25 01:09:24;;;;;;;3.53;2.13;;;14.00;99.90;;;;;;5066055;28;20229;-78
2022/10/25 01:11:51;;;;;;;4.50;2.37;;;14.00;99.90;;;;;;5034309;28;20183;-78
2022/10/25 01:14:18;;;;;;;3.73;2.50;;;14.00;99.90;;;;;;5050339;28;20203;-77
2022/10/25 01:17:12;;;;;;;6.33;2.37;;;14.00;99.90;;;;;;5066210;28;20187;-78
2022/10/25 01:20:10;;;;;;;3.70;2.50;;;13.90;99.90;;;;;;5048935;28;20734;-78
2022/10/25 01:22:44;;;;;;;5.50;2.50;;;13.90;99.90;;;;;;5052645;28;20591;-78
2022/10/25 01:25:58;;;;;;;3.33;2.13;;;14.00;99.90;;;;;;5037273;28;20205;-78
2022/10/25 01:29:03;;;;;;;3.53;2.27;;;14.00;99.90;;;;;;5050332;28;20194;-78
2022/10/25 01:31:52;;;;;;;3.37;2.23;;;14.00;99.90;;;;;;5029293;28;20202;-78
2022/10/25 01:34:54;;;;;;;6.07;2.30;;;14.00;99.90;;;;;;5061612;28;20222;-78
2022/10/25 01:38:06;;;;;;;4.60;2.50;;;13.90;99.90;;;;;;5031188;28;20205;-78
2022/10/25 01:40:32;;;;;;;7.20;2.50;;;13.90;99.90;;;;;;5044870;28;20202;-78
2022/10/25 01:43:31;;;;;;;4.03;2.70;;;13.90;99.90;;;;;;5053257;28;20215;-77
2022/10/25 01:46:25;;;;;;;3.93;2.50;;;13.90;99.90;;;;;;5050736;28;20203;-77
2022/10/25 01:49:09;;;;;;;7.93;2.90;;;13.90;99.90;;;;;;5037503;28;20209;-78
2022/10/25 01:51:36;;;;;;;4.33;2.63;;;13.90;99.90;;;;;;5033883;28;20638;-77
2022/10/25 01:54:03;;;;;;;5.43;2.70;;;13.90;99.90;;;;;;5033166;28;20309;-77
2022/10/25 01:57:10;;;;;;;4.33;2.47;;;13.90;99.90;;;;;;5056229;28;20202;-77
2022/10/25 02:00:06;;;;;;;6.23;2.43;;;13.90;99.90;;;;;;5049457;28;20503;-77
2022/10/25 02:02:36;;;;;;;6.90;2.30;;;13.90;99.90;;;;;;5046587;28;20507;-77
2022/10/25 02:05:49;;;;;;;2.63;2.03;;;13.90;99.90;;;;;;5070308;28;20602;-78
2022/10/25 02:08:42;;;;;;;3.50;2.37;;;13.90;99.90;;;;;;5046038;28;20245;-78
2022/10/25 02:11:24;;;;;;;6.13;2.60;;;13.90;99.90;;;;;;5069486;28;20793;-78
2022/10/25 02:14:30;;;;;;;5.40;2.57;;;13.90;99.90;;;;;;5041332;28;20226;-79
2022/10/25 02:17:11;;;;;;;3.43;2.50;;;13.90;99.90;;;;;;5060998;28;20198;-78
2022/10/25 02:19:48;;;;;;;7.00;2.40;;;13.90;99.90;;;;;;5038271;28;20194;-78
2022/10/25 02:22:20;;;;;;;4.37;2.50;;;13.90;99.90;;;;;;5070598;28;20853;-78
2022/10/25 02:24:50;;;;;;;4.83;2.60;;;13.90;99.90;;;;;;5054433;28;20853;-78
2022/10/25 02:27:22;;;;;;;5.03;2.70;;;13.90;99.90;;;;;;5056634;28;20185;-78
2022/10/25 02:29:51;;;;;;;3.90;2.53;;;13.90;99.90;;;;;;5048638;28;20531;-79
2022/10/25 02:32:17;;;;;;;6.53;2.87;;;14.00;99.90;;;;;;5075591;28;20897;-78
2022/10/25 02:34:48;;;;;;;3.77;3.10;;;13.90;99.90;;;;;;5059307;28;20222;-78
2022/10/25 02:37:14;;;;;;;4.83;2.83;;;13.90;99.90;;;;;;5076797;28;20216;-79
2022/10/25 02:39:42;;;;;;;8.00;2.70;;;13.90;99.90;;;;;;5053045;28;20182;-78
2022/10/25 02:42:09;;;;;;;5.63;2.53;;;13.90;99.90;;;;;;5045186;28;20317;-78
2022/10/25 02:44:35;;;;;;;6.57;2.30;;;13.90;99.90;;;;;;5048744;28;20195;-78
2022/10/25 02:47:02;;;;;;;15.13;3.00;;;13.80;99.90;;;;;;5046589;28;20783;-78
2022/10/25 02:49:29;;;;;;;5.10;2.70;;;13.80;99.90;;;;;;5052801;28;20205;-78
2022/10/25 02:51:55;;;;;;;5.67;2.40;;;13.80;99.90;;;;;;5070126;28;20197;-78
2022/10/25 02:54:22;;;;;;;6.23;2.83;;;13.80;99.90;;;;;;5061523;28;20226;-77
2022/10/25 02:56:51;;;;;;;5.00;2.70;;;13.80;99.90;;;;;;5033270;28;20299;-78
2022/10/25 02:59:19;;;;;;;5.10;2.20;;;13.80;99.90;;;;;;5048925;28;20194;-77
2022/10/25 03:01:46;;;;;;;4.77;2.30;;;13.80;99.90;;;;;;5043246;28;20265;-78
2022/10/25 03:04:12;;;;;;;8.23;2.80;;;13.80;99.90;;;;;;5056604;28;20352;-78
2022/10/25 03:06:39;;;;;;;5.40;2.60;;;13.70;99.90;;;;;;5050041;28;20661;-78
2022/10/25 03:09:05;;;;;;;6.40;2.37;;;13.70;99.90;;;;;;5033508;28;20256;-78
2022/10/25 03:11:32;;;;;;;5.97;2.83;;;13.80;99.90;;;;;;5043868;28;20185;-77
2022/10/25 03:13:58;;;;;;;6.07;2.43;;;13.80;99.90;;;;;;5046558;28;20215;-78
2022/10/25 03:16:25;;;;;;;4.23;2.47;;;13.80;99.90;;;;;;5042367;28;20191;-78
2022/10/25 03:18:55;;;;;;;6.30;2.37;;;13.80;99.90;;;;;;5046230;28;20595;-78
2022/10/25 03:21:21;;;;;;;4.57;2.17;;;13.70;99.90;;;;;;5065817;28;20217;-78
2022/10/25 03:23:47;;;;;;;4.43;2.40;;;13.70;99.90;;;;;;5058339;28;20223;-77
2022/10/25 03:26:14;;;;;;;5.43;2.80;;;13.70;99.90;;;;;;5043455;28;20221;-77
2022/10/25 03:28:40;;;;;;;6.53;2.50;;;13.70;99.90;;;;;;5067143;28;20269;-77
2022/10/25 03:31:13;;;;;;;5.47;2.30;;;13.80;99.90;;;;;;5048820;28;20839;-78
2022/10/25 03:33:40;;;;;;;7.80;2.53;;;13.80;99.90;;;;;;5057585;28;20225;-77
2022/10/25 03:36:07;;;;;;;5.83;2.50;;;13.80;99.90;;;;;;5046933;28;20565;-77
2022/10/25 03:38:34;;;;;;;4.97;2.53;;;13.70;99.90;;;;;;5060982;28;20653;-77
2022/10/25 03:41:01;;;;;;;7.83;2.40;;;13.80;99.90;;;;;;5061212;28;20691;-78
2022/10/25 03:43:27;;;;;;;6.10;2.53;;;13.80;99.90;;;;;;5025651;28;20187;-78
2022/10/25 03:45:53;;;;;;;4.13;2.70;;;13.80;99.90;;;;;;5047079;28;20230;-78
2022/10/25 03:48:20;;;;;;;5.73;2.40;;;13.80;99.90;;;;;;5047216;28;20209;-78
2022/10/25 03:50:47;;;;;;;7.80;2.63;;;13.80;99.90;;;;;;5035482;28;20493;-77
2022/10/25 03:53:13;;;;;;;4.50;2.20;;;13.70;99.90;;;;;;5048907;28;20246;-77
2022/10/25 03:55:40;;;;;;;4.47;2.23;;;13.80;99.90;;;;;;5072241;28;20190;-77
2022/10/25 03:58:06;;;;;;;5.27;2.27;;;13.80;99.90;;;;;;5060862;28;20181;-77
2022/10/25 04:00:33;;;;;;;7.07;2.20;;;13.70;99.90;;;;;;5081003;28;20194;-77
2022/10/25 04:03:01;;;;;;;5.87;2.50;;;13.70;99.90;;;;;;5060059;28;20189;-78
2022/10/25 04:05:30;;;;;;;4.30;2.43;;;13.80;99.90;;;;;;5054907;28;20195;-78
2022/10/25 04:07:57;;;;;;;4.70;2.20;;;13.80;99.90;;;;;;5048824;28;20272;-78
2022/10/25 04:10:24;;;;;;;6.70;2.07;;;13.80;99.90;;;;;;5048520;28;20187;-77
2022/10/25 04:12:51;;;;;;;8.07;3.20;;;13.80;99.90;;;;;;5063052;28;20195;-77
2022/10/25 04:15:18;;;;;;;10.07;2.27;;;13.90;99.90;;;;;;5042400;28;20256;-77
2022/10/25 04:17:48;;;;;;;13.27;2.73;;;13.90;99.90;;;;;;5069759;28;20198;-78
2022/10/25 04:20:15;;;;;;;6.47;2.50;;;13.90;99.90;;;;;;5030923;28;20199;-78
2022/10/25 04:22:41;;;;;;;5.93;2.20;;;14.10;99.90;;;;;;5077151;28;20599;-78
2022/10/25 04:25:08;;;;;;;6.47;2.47;;;14.10;99.90;;;;;;5035594;28;20214;-78
2022/10/25 04:27:34;;;;;;;5.10;2.10;;;14.20;99.90;;;;;;5035337;28;20639;-77
2022/10/25 04:30:01;;;;;;;6.23;2.43;;;14.20;99.90;;;;;;5072565;28;20580;-78
2022/10/25 04:32:28;;;;;;;3.00;1.93;;;14.30;99.90;;;;;;5032187;28;20226;-77
2022/10/25 04:34:54;;;;;;;17.40;2.90;;;14.30;99.90;;;;;;5069750;28;20233;-78
2022/10/25 04:37:20;;;;;;;12.20;3.20;;;14.30;99.90;;;;;;5055944;28;20222;-78
2022/10/25 04:39:47;;;;;;;5.43;2.07;;;14.30;99.90;;;;;;5034163;28;20256;-78
2022/10/25 04:42:13;;;;;;;5.70;2.60;;;14.20;99.90;;;;;;5067264;28;20206;-79
2022/10/25 04:44:39;;;;;;;11.10;2.30;;;14.20;99.90;;;;;;5053947;28;20364;-78
2022/10/25 04:47:06;;;;;;;9.70;2.27;;;14.30;99.90;;;;;;5050155;28;20219;-78
2022/10/25 04:49:32;;;;;;;7.37;2.77;;;14.40;99.90;;;;;;5042633;28;20660;-78
2022/10/25 04:51:59;;;;;;;7.30;2.50;;;14.40;99.90;;;;;;5031753;28;20663;-78
2022/10/25 04:54:25;;;;;;;10.20;2.60;;;14.50;99.90;;;;;;5032627;28;20306;-78
2022/10/25 04:56:52;;;;;;;4.37;2.33;;;14.50;99.90;;;;;;5032523;28;20198;-78
2022/10/25 04:59:18;;;;;;;7.70;2.60;;;14.60;99.90;;;;;;5078274;28;20190;-78
2022/10/25 05:01:44;;;;;;;12.10;2.87;;;14.60;99.90;;;;;;5047215;28;20188;-78
2022/10/25 05:04:11;;;;;;;4.17;2.30;;;14.60;99.90;;;;;;5069526;28;20187;-78
2022/10/25 05:06:38;;;;;;;4.53;2.37;;;14.60;99.90;;;;;;5059211;28;20203;-78
2022/10/25 05:09:04;;;;;;;7.30;2.50;;;14.70;99.90;;;;;;5049230;28;20202;-77
2022/10/25 05:11:31;;;;;;;6.73;2.27;;;14.70;99.90;;;;;;5064602;28;20213;-78
2022/10/25 05:13:58;;;;;;;11.27;2.40;;;14.80;99.90;;;;;;5054668;28;20226;-78
2022/10/25 05:16:25;;;;;;;8.70;2.40;;;14.80;99.90;;;;;;5060635;28;20194;-78
2022/10/25 05:18:54;;;;;;;5.00;2.80;;;14.90;99.90;;;;;;5071607;28;20197;-77
2022/10/25 05:21:29;;;;;;;7.17;2.40;;;14.90;99.90;;;;;;5083676;28;20198;-78
2022/10/25 05:23:59;;;;;;;9.13;2.43;;;14.90;99.90;;;;;;5058725;28;20224;-78
2022/10/25 05:26:26;;;;;;;7.53;2.60;;;15.00;99.90;;;;;;5046124;28;20690;-78
2022/10/25 05:28:54;;;;;;;8.03;2.17;;;15.10;99.90;;;;;;5073006;28;20223;-78
2022/10/25 05:31:24;;;;;;;6.60;2.00;;;15.20;99.90;;;;;;5046342;28;20528;-78
2022/10/25 05:33:55;;;;;;;7.00;2.20;;;15.30;99.90;;;;;;5046693;28;20223;-78
2022/10/25 05:36:21;;;;;;;7.30;2.30;;;15.40;99.90;;;;;;5063209;28;20194;-77
2022/10/25 05:38:49;;;;;;;9.53;2.70;;;15.50;99.90;;;;;;5047647;28;20719;-77
2022/10/25 05:41:17;;;;;;;5.87;2.30;;;15.60;99.90;;;;;;5052308;28;20278;-77
2022/10/25 05:43:45;;;;;;;10.03;2.80;;;15.70;99.90;;;;;;5053218;28;20573;-78
2022/10/25 05:46:15;;;;;;;8.33;2.57;;;15.70;99.90;;;;;;5063616;28;20207;-77
2022/10/25 05:48:43;;;;;;;5.23;2.37;;;15.80;99.90;;;;;;5034415;28;20720;-77
2022/10/25 05:51:15;;;;;;;8.77;2.13;;;15.80;99.90;;;;;;5033555;28;20198;-78
2022/10/25 05:53:47;;;;;;;4.27;2.30;;;15.90;99.90;;;;;;5046493;28;20268;-77
2022/10/25 05:56:15;;;;;;;4.53;2.33;;;16.10;99.90;;;;;;5046672;28;20202;-78
2022/10/25 05:58:42;;;;;;;6.60;2.50;;;16.30;99.90;;;;;;5033974;28;20229;-77
2022/10/25 06:01:11;;;;;;;6.93;2.60;;;16.40;99.90;;;;;;5038101;28;20210;-78
2022/10/25 06:03:37;;;;;;;8.73;2.77;;;16.60;99.90;;;;;;5048167;28;20210;-78
2022/10/25 06:06:08;;;;;;;10.33;2.60;;;16.70;99.90;;;;;;5045337;28;20648;-79
2022/10/25 06:08:35;;;;;;;8.07;2.30;;;16.80;99.90;;;;;;5051217;28;20190;-79
2022/10/25 06:11:09;;;;;;;6.50;2.20;;;16.80;99.90;;;;;;5075936;28;20229;-78
2022/10/25 06:13:37;;;;;;;4.97;2.63;;;16.80;99.90;;;;;;5066481;28;20245;-78
2022/10/25 06:16:06;;;;;;;6.63;3.03;;;16.80;99.90;;;;;;5056523;28;20206;-78
2022/10/25 06:18:37;;;;;;;8.50;2.50;;;16.90;99.90;;;;;;5042296;28;20210;-79
2022/10/25 06:21:16;;;;;;;6.73;2.47;;;17.00;99.90;;;;;;5044127;28;21004;-79
2022/10/25 06:23:44;;;;;;;7.67;2.60;;;17.20;99.90;;;;;;5046304;28;20191;-79
2022/10/25 06:26:14;;;;;;;9.37;2.33;;;17.30;99.90;;;;;;5026955;28;20191;-79
2022/10/25 06:28:40;;;;;;;7.10;2.40;;;17.30;99.90;;;;;;5046751;28;20312;-79
2022/10/25 06:31:15;;;;;;;6.80;2.83;;;17.20;99.90;;;;;;5049163;28;20187;-79
2022/10/25 06:33:42;;;;;;;8.37;2.70;;;17.20;99.90;;;;;;5036971;28;20554;-78
2022/10/25 06:36:23;;;;;;;8.90;2.33;;;17.30;99.90;;;;;;5026143;28;20187;-79
2022/10/25 06:38:50;;;;;;;3.87;2.20;;;17.30;99.90;;;;;;5064517;28;20663;-78
2022/10/25 06:41:26;;;;;;;5.80;2.60;;;17.40;99.90;;;;;;5060133;28;20186;-79
2022/10/25 06:43:57;;;;;;;15.33;3.07;;;17.40;99.90;;;;;;5043739;28;20198;-78
2022/10/25 06:46:31;;;;;;;4.87;2.17;;;17.40;99.90;;;;;;5072135;28;20197;-79
2022/10/25 06:49:00;;;;;;;4.83;2.17;;;17.60;99.90;;;;;;5040132;28;20209;-77
2022/10/25 06:51:28;;;;;;;8.57;2.70;;;17.60;99.90;;;;;;5065379;28;20185;-78
2022/10/25 06:53:57;;;;;;;4.77;2.50;;;17.60;99.90;;;;;;5069248;28;20509;-77
2022/10/25 06:56:25;;;;;;;7.60;2.47;;;17.60;99.90;;;;;;5052467;28;20195;-78
2022/10/25 06:58:51;;;;;;;7.50;2.63;;;17.60;99.90;;;;;;5069629;28;20191;-78
2022/10/25 07:01:19;;;;;;;7.50;2.70;;;17.60;99.90;;;;;;5068509;28;20218;-79
2022/10/25 07:03:55;;;;;;;4.67;2.43;;;17.70;99.90;;;;;;5047405;28;20199;-78
2022/10/25 07:06:28;;;;;;;6.60;2.30;;;17.90;99.90;;;;;;5033506;28;20536;-79
2022/10/25 07:09:00;;;;;;;8.30;2.70;;;17.90;99.90;;;;;;5068815;28;20267;-78
2022/10/25 07:11:32;;;;;;;8.07;2.70;;;17.80;99.90;;;;;;5048993;28;20202;-78
2022/10/25 07:14:03;;;;;;;6.90;2.50;;;17.80;99.90;;;;;;5068408;28;20225;-79
2022/10/25 07:16:30;;;;;;;7.63;2.80;;;17.70;99.90;;;;;;5049861;28;20251;-78
2022/10/25 07:19:01;;;;;;;10.03;2.70;;;17.70;99.90;;;;;;5069170;28;21316;-78
2022/10/25 07:21:30;;;;;;;9.83;2.43;;;17.70;99.90;;;;;;5047529;28;20203;-78
2022/10/25 07:23:56;;;;;;;10.07;2.73;;;17.80;99.90;;;;;;5054683;28;20190;-79
2022/10/25 07:26:26;;;;;;;9.30;2.63;;;17.80;99.90;;;;;;5068752;28;20195;-78
2022/10/25 07:28:57;;;;;;;13.20;2.53;;;17.80;99.90;;;;;;5031439;28;20216;-79
2022/10/25 07:31:37;;;;;;;9.33;2.70;;;17.90;99.90;;;;;;5049249;28;20191;-78
2022/10/25 07:34:05;;;;;;;6.37;2.10;;;18.00;99.90;;;;;;5040916;28;20264;-78
2022/10/25 07:36:33;;;;;;;10.13;2.30;;;18.10;99.90;;;;;;5050557;28;20179;-79
2022/10/25 07:38:59;;;;;;;6.73;2.80;;;18.10;99.90;;;;;;5047004;28;20799;-78
2022/10/25 07:41:26;;;;;;;6.10;2.50;;;18.10;99.90;;;;;;5043656;28;20555;-78
2022/10/25 07:43:54;;;;;;;5.63;2.03;;;18.10;99.90;;;;;;5054413;28;20271;-78
2022/10/25 07:46:24;;;;;;;4.33;2.03;;;18.20;99.90;;;;;;5047508;28;20324;-79
2022/10/25 07:48:53;;;;;;;10.87;2.50;;;18.20;99.90;;;;;;5063592;28;20703;-78
2022/10/25 07:51:23;;;;;;;8.77;2.50;;;18.40;99.90;;;;;;5044169;28;20562;-78
2022/10/25 07:53:51;;;;;;;7.47;2.23;;;18.40;99.90;;;;;;5065949;28;20604;-78
2022/10/25 07:56:19;;;;;;;9.37;2.33;;;18.40;99.90;;;;;;5067483;28;20191;-78
2022/10/25 07:58:46;;;;;;;6.40;2.47;;;18.60;99.90;;;;;;5052648;28;20186;-78
2022/10/25 08:01:20;;;;;;;7.70;2.43;;;18.60;99.90;;;;;;5074828;28;20182;-78
2022/10/25 08:03:46;;;;;;;7.57;2.03;;;18.70;99.90;;;;;;5069108;28;20239;-78
2022/10/25 08:06:13;;;;;;;7.37;2.47;;;18.70;99.90;;;;;;5042883;28;20656;-78
2022/10/25 08:08:39;;;;;;;6.33;2.33;;;18.70;99.90;;;;;;5059494;28;20575;-78
2022/10/25 08:11:07;;;;;;;7.00;2.50;;;18.80;99.90;;;;;;5069527;28;20194;-78
2022/10/25 08:13:35;;;;;;;7.83;2.77;;;18.80;99.90;;;;;;5051820;28;20198;-78
2022/10/25 08:16:02;;;;;;;8.40;2.47;;;18.90;99.90;;;;;;5052666;28;20179;-78
2022/10/25 08:18:28;;;;;;;9.33;2.53;;;18.90;99.90;;;;;;5058020;28;20241;-78
2022/10/25 08:20:55;;;;;;;8.13;2.70;;;19.00;99.90;;;;;;5062840;28;20552;-78
2022/10/25 08:23:24;;;;;;;7.53;2.40;;;19.20;99.90;;;;;;5050962;28;20187;-78
2022/10/25 08:25:51;;;;;;;10.90;2.60;;;19.50;99.90;;;;;;5035536;28;20635;-79
2022/10/25 08:28:18;;;;;;;7.67;2.07;;;19.60;99.90;;;;;;5068979;28;20187;-78
2022/10/25 08:30:44;;;;;;;12.60;2.70;;;19.60;99.90;;;;;;5049869;28;20673;-78
2022/10/25 08:33:10;;;;;;;6.87;2.47;;;19.70;99.90;;;;;;5056603;28;20194;-79
2022/10/25 08:35:37;;;;;;;8.90;2.60;;;19.80;99.90;;;;;;5058344;28;20696;-78
2022/10/25 08:38:04;;;;;;;7.93;2.70;;;19.80;99.90;;;;;;5070034;28;20186;-78
2022/10/25 08:40:54;;;;;;;8.13;2.90;;;19.90;99.90;;;;;;5050328;28;20171;-78
2022/10/25 08:43:53;;;;;;;9.83;2.50;;;20.10;99.90;;;;;;5035266;28;20187;-78
2022/10/25 08:46:55;;;;;;;7.03;2.47;;;20.20;99.90;;;;;;5054578;28;20547;-78
2022/10/25 08:49:27;;;;;;;10.00;2.80;;;20.30;99.90;;;;;;5068043;28;20183;-78
2022/10/25 08:51:57;;;;;;;7.93;2.20;;;20.50;99.90;;;;;;5045133;28;20319;-78
2022/10/25 08:54:31;;;;;;;5.67;2.23;;;20.40;99.90;;;;;;5069696;28;20222;-78
2022/10/25 08:57:22;;;;;;;7.73;2.20;;;20.40;99.90;;;;;;5051948;28;20839;-78
2022/10/25 08:59:59;;;;;;;6.97;2.70;;;20.50;99.90;;;;;;5077318;28;20530;-80
2022/10/25 09:02:55;;;;;;;9.27;2.60;;;20.60;99.90;;;;;;5036273;28;20723;-78
2022/10/25 09:06:24;;;;;;;8.73;2.43;;;20.70;99.90;;;;;;5052076;28;20626;-78
2022/10/25 09:09:37;;;;;;;8.53;2.30;;;20.80;99.90;;;;;;5030012;28;20198;-79
2022/10/25 09:12:49;;;;;;;6.77;2.17;;;21.00;99.90;;;;;;5053724;28;20194;-79
2022/10/25 09:15:55;;;;;;;4.90;2.33;;;21.00;99.90;;;;;;5051596;28;20213;-79
2022/10/25 09:18:46;;;;;;;4.57;2.30;;;21.20;99.90;;;;;;5031763;28;20185;-78
2022/10/25 09:21:20;;;;;;;7.27;2.37;;;21.30;99.90;;;;;;5064442;28;20210;-78
2022/10/25 09:24:21;;;;;;;6.35;3.03;;;21.40;99.90;;;;;;5065141;28;20202;-78
2022/10/25 09:27:14;;;;;;;10.20;2.55;;;21.50;99.90;;;;;;5047532;28;20206;-78
2022/10/25 09:30:00;;;;;;;10.70;2.78;;;21.60;99.90;;;;;;5043695;28;20187;-78
2022/10/25 09:32:40;;;;;;;12.87;2.80;;;21.70;99.90;;;;;;5047829;28;20671;-79
2022/10/25 09:35:28;;;;;;;7.85;2.58;;;21.80;99.90;;;;;;5063658;28;20289;-78
2022/10/25 09:38:21;;;;;;;8.38;2.88;;;21.90;99.90;;;;;;5060264;28;20270;-79
2022/10/25 09:41:04;;;;;;;6.75;2.42;;;22.00;99.90;;;;;;5049995;28;20191;-79
2022/10/25 09:43:48;;;;;;;6.60;2.85;;;22.20;99.90;;;;;;5046052;28;20257;-79
2022/10/25 09:46:36;;;;;;;11.65;2.80;;;22.20;99.90;;;;;;5057068;28;20187;-78
2022/10/25 09:49:41;;;;;;;6.57;2.30;;;22.30;99.90;;;;;;5043897;28;20187;-78
2022/10/25 09:52:34;;;;;;;11.45;3.15;;;22.30;99.90;;;;;;5005904;28;20257;-78
2022/10/25 09:55:31;;;;;;;6.07;2.25;;;22.40;99.90;;;;;;5022605;28;20291;-78
2022/10/25 09:57:59;;;;;;;4.70;2.50;;;22.50;99.90;;;;;;5063738;28;20191;-79
2022/10/25 10:00:27;;;;;;;9.38;2.75;;;22.60;99.90;;;;;;5035204;28;20186;-78
2022/10/25 10:02:54;;;;;;;7.50;2.50;;;22.80;99.90;;;;;;5031580;28;20186;-77
2022/10/25 10:05:21;;;;;;;10.52;2.50;;;22.90;99.90;;;;;;5067120;28;20277;-78
2022/10/25 10:07:50;;;;;;;8.25;2.70;;;23.00;99.90;;;;;;5045651;28;20274;-78
2022/10/25 10:10:22;;;;;;;9.15;2.40;;;23.20;99.90;;;;;;5033769;28;20297;-78
2022/10/25 10:12:55;;;;;;;5.72;2.42;;;23.30;99.90;;;;;;5048039;28;20190;-78
2022/10/25 10:15:38;;;;;;;8.35;2.53;;;23.40;99.90;;;;;;5031485;28;20217;-77
2022/10/25 10:18:24;;;;;;;9.65;2.30;;;23.70;99.90;;;;;;5050883;28;20195;-78
2022/10/25 10:21:20;;;;;;;4.97;2.30;;;24.20;99.90;;;;;;5030929;28;20656;-78
2022/10/25 10:24:01;;;;;;;8.07;2.83;;;25.30;99.90;;;;;;5025349;28;20199;-79
2022/10/25 10:26:35;;;;;;;6.38;2.78;;;26.80;99.90;;;;;;5043333;28;20209;-78
2022/10/25 10:29:21;;;;;;;9.13;2.70;;;28.00;99.90;;;;;;5047118;28;20192;-78
2022/10/25 10:31:52;;;;;;;7.57;2.25;;;27.70;99.90;;;;;;5027439;28;20517;-78
2022/10/25 10:34:50;;;;;;;7.95;2.83;;;26.60;99.90;;;;;;5069769;28;20215;-78
2022/10/25 10:37:27;;;;;;;11.77;2.70;;;25.70;99.90;;;;;;5030688;28;20217;-78
2022/10/25 10:40:14;;;;;;;7.32;2.50;;;25.10;99.90;;;;;;5029110;28;20210;-78
2022/10/25 10:42:41;;;;;;;8.20;2.40;;;24.70;99.90;;;;;;5045024;28;20194;-77
2022/10/25 10:45:11;;;;;;;7.78;2.80;;;24.70;99.90;;;;;;5049596;28;20272;-78
2022/10/25 10:47:55;;;;;;;8.40;2.42;;;24.50;99.90;;;;;;5053140;28;20195;-78
2022/10/25 10:50:23;;;;;;;6.03;2.50;;;24.40;99.90;;;;;;5067170;28;20582;-78
2022/10/25 10:53:01;;;;;;;8.23;2.60;;;24.50;99.90;;;;;;5048693;28;20183;-79
2022/10/25 10:55:34;;;;;;;9.43;2.63;;;25.30;99.90;;;;;;5039939;28;20218;-78
2022/10/25 10:58:18;;;;;;;10.70;2.95;;;24.90;99.90;;;;;;5066679;28;20183;-78
2022/10/25 11:00:55;;;;;;;8.65;2.30;;;24.10;99.90;;;;;;5032973;28;20202;-78
2022/10/25 11:03:59;;;;;;;6.88;2.65;;;23.60;99.90;;;;;;5052227;28;20289;-78
2022/10/25 11:06:30;;;;;;;10.27;2.92;;;23.40;99.90;;;;;;5006513;28;20191;-78
2022/10/25 11:09:11;;;;;;;4.95;2.70;;;23.30;99.90;;;;;;5051638;28;20215;-78
2022/10/25 11:11:39;;;;;;;10.30;3.08;;;23.30;99.90;;;;;;5032531;28;20189;-78
2022/10/25 11:14:15;;;;;;;9.48;2.50;;;23.20;99.90;;;;;;5045283;28;20221;-78
2022/10/25 11:17:02;;;;;;;10.45;3.05;;;23.20;99.90;;;;;;5048030;28;20182;-78
2022/10/25 11:20:20;;;;;;;10.77;2.92;;;23.20;99.90;;;;;;5029827;28;20190;-78
2022/10/25 11:23:11;;;;;;;5.57;2.42;;;23.20;99.90;;;;;;5068307;28;20203;-78
2022/10/25 11:25:51;;;;;;;10.23;3.00;;;23.20;99.90;;;;;;5041668;28;20187;-78
2022/10/25 11:28:54;;;;;;;7.68;2.72;;;23.30;99.90;;;;;;5026188;28;20193;-78
2022/10/25 11:32:03;;;;;;;9.77;2.92;;;23.30;99.90;;;;;;5048607;28;20182;-78
2022/10/25 11:35:19;;;;;;;12.45;2.67;;;23.30;99.90;;;;;;5034885;28;20226;-78
2022/10/25 11:37:57;;;;;;;8.63;3.13;;;23.30;99.90;;;;;;5048672;28;20191;-78
2022/10/25 11:40:45;;;;;;;6.13;2.92;;;23.40;99.90;;;;;;5032859;28;20217;-78
2022/10/25 11:43:51;;;;;;;12.63;3.10;;;23.40;99.90;;;;;;5045128;28;20182;-78
2022/10/25 11:46:23;;;;;;;18.80;2.90;;;23.40;99.90;;;;;;5044270;28;20756;-79
2022/10/25 11:49:20;;;;;;;12.15;2.80;;;23.40;99.90;;;;;;5044313;28;20232;-78
2022/10/25 11:52:21;;;;;;;7.70;2.50;;;23.30;99.90;;;;;;5036049;28;20182;-78
2022/10/25 11:55:05;;;;;;;11.07;2.83;;;23.40;99.90;;;;;;5040548;28;20289;-78
2022/10/25 11:58:12;;;;;;;6.60;3.05;;;23.50;99.90;;;;;;5037632;28;20207;-78
2022/10/25 12:01:20;;;;;;;7.07;2.80;;;23.50;99.90;;;;;;5048622;28;20222;-78
2022/10/25 12:04:04;;;;;;;10.93;3.03;;;23.50;99.90;;;;;;5060562;28;20187;-78
2022/10/25 12:06:49;;;;;;;10.88;2.80;;;23.40;99.90;;;;;;5024058;28;20478;-78
2022/10/25 12:10:00;;;;;;;9.25;3.03;;;23.50;99.90;;;;;;5045868;28;20193;-78
2022/10/25 12:12:45;;;;;;;8.40;3.10;;;23.50;99.90;;;;;;5034666;28;20920;-78
2022/10/25 12:15:38;;;;;;;10.43;3.40;;;23.50;99.90;;;;;;5029252;28;20248;-78
2022/10/25 12:18:10;;;;;;;7.30;2.63;;;23.30;99.90;;;;;;5047513;28;20244;-78
2022/10/25 12:20:37;;;;;;;14.55;3.08;;;23.30;99.90;;;;;;5043346;28;20264;-78
2022/10/25 12:23:12;;;;;;;11.00;2.88;;;23.30;99.90;;;;;;5024217;28;20190;-78
2022/10/25 12:25:50;;;;;;;13.43;2.95;;;23.40;99.90;;;;;;5042945;28;20190;-78
2022/10/25 12:28:19;;;;;;;7.88;2.72;;;23.40;99.90;;;;;;5054135;28;20195;-79
2022/10/25 12:30:49;;;;;;;12.32;2.95;;;23.40;99.90;;;;;;5024506;28;20192;-78
2022/10/25 12:33:27;;;;;;;7.90;2.75;;;23.40;99.90;;;;;;5052207;28;20251;-78
2022/10/25 12:36:03;;;;;;;7.00;2.85;;;23.40;99.90;;;;;;5058959;28;20187;-79
2022/10/25 12:38:37;;;;;;;10.07;3.00;;;23.50;99.90;;;;;;5035958;28;20221;-79
2022/10/25 12:41:22;;;;;;;7.97;2.92;;;23.50;99.90;;;;;;5037446;28;20669;-79
2022/10/25 12:44:24;;;;;;;8.32;2.90;;;23.50;99.90;;;;;;5042931;28;20194;-79
2022/10/25 12:47:33;;;;;;;8.88;2.88;;;23.30;99.90;;;;;;4996696;28;20610;-78
2022/10/25 12:50:31;;;;;;;5.80;2.88;;;23.40;99.90;;;;;;5060080;28;20266;-78
2022/10/25 12:53:28;;;;;;;11.40;2.78;;;23.30;99.90;;;;;;5035938;28;20179;-79
2022/10/25 12:55:57;;;;;;;8.07;2.90;;;23.30;99.90;;;;;;5065852;28;20639;-78
2022/10/25 12:58:47;;;;;;;14.77;3.63;;;23.30;99.90;;;;;;5065325;28;20174;-78
2022/10/25 13:02:11;;;;;;;6.78;2.97;;;23.40;99.90;;;;;;5068462;28;20261;-78
2022/10/25 13:04:46;;;;;;;7.28;2.85;;;23.20;99.90;;;;;;5053159;28;20186;-78
2022/10/25 13:07:15;;;;;;;10.23;3.05;;;23.10;99.90;;;;;;5060698;28;20278;-78
2022/10/25 13:09:42;;;;;;;11.07;3.38;;;23.00;99.90;;;;;;5054456;28;20185;-78
2022/10/25 13:12:32;;;;;;;11.63;3.40;;;23.00;99.90;;;;;;5059888;28;20611;-78
2022/10/25 13:15:00;;;;;;;9.85;3.50;;;23.00;99.90;;;;;;5055601;28;20251;-79
2022/10/25 13:17:43;;;;;;;9.45;3.05;;;22.90;99.90;;;;;;5081845;28;20174;-78
2022/10/25 13:20:30;;;;;;;15.65;3.45;;;23.00;99.90;;;;;;5071734;28;20190;-79
2022/10/25 13:22:58;;;;;;;10.13;3.50;;;22.90;99.90;;;;;;5072418;28;20889;-78
2022/10/25 13:25:32;;;;;;;11.70;3.50;;;22.90;99.90;;;;;;5069207;28;20205;-78
2022/10/25 13:28:10;;;;;;;17.13;3.42;;;22.90;99.90;;;;;;5052118;28;20240;-78
2022/10/25 13:30:38;;;;;;;9.38;3.28;;;22.90;99.90;;;;;;5030604;28;20291;-78